createdAt,value
2023-05-23T00:00:58.727Z,768.00
2023-05-23T00:01:58.862Z,765.00
2023-05-23T00:02:59.015Z,766.00
2023-05-23T00:03:58.989Z,766.00
2023-05-23T00:04:58.909Z,764.00
2023-05-23T00:05:58.960Z,765.00
2023-05-23T00:06:58.973Z,765.00
2023-05-23T00:07:59.017Z,766.00
2023-05-23T00:08:59.063Z,762.00
2023-05-23T00:09:59.114Z,757.00
2023-05-23T00:10:59.154Z,754.00
2023-05-23T00:11:59.332Z,752.00
2023-05-23T00:12:59.264Z,754.00
2023-05-23T00:13:59.298Z,754.00
2023-05-23T00:14:59.314Z,755.00
2023-05-23T00:15:59.347Z,755.00
2023-05-23T00:16:59.417Z,754.00
2023-05-23T00:17:59.465Z,751.00
2023-05-23T00:18:59.651Z,746.00
2023-05-23T00:19:59.519Z,745.00
2023-05-23T00:20:59.568Z,745.00
2023-05-23T00:21:59.646Z,747.00
2023-05-23T00:22:59.682Z,751.00
2023-05-23T00:23:59.707Z,751.00
2023-05-23T00:24:59.768Z,752.00
2023-05-23T00:25:59.829Z,751.00
2023-05-23T00:26:59.855Z,750.00
2023-05-23T00:28:00.059Z,748.00
2023-05-23T00:28:59.962Z,748.00
2023-05-23T00:30:00.026Z,751.00
2023-05-23T00:31:00.164Z,749.00
2023-05-23T00:32:00.146Z,748.00
2023-05-23T00:33:00.267Z,749.00
2023-05-23T00:34:00.239Z,743.00
2023-05-23T00:35:00.300Z,744.00
2023-05-23T00:36:00.352Z,742.00
2023-05-23T00:37:00.400Z,739.00
2023-05-23T00:38:00.456Z,738.00
2023-05-23T00:39:00.510Z,735.00
2023-05-23T00:40:00.585Z,737.00
2023-05-23T00:41:00.632Z,738.00
2023-05-23T00:42:00.696Z,737.00
2023-05-23T00:43:00.743Z,736.00
2023-05-23T00:44:00.927Z,734.00
2023-05-23T00:45:00.853Z,736.00
2023-05-23T00:46:00.954Z,737.00
2023-05-23T00:47:00.994Z,737.00
2023-05-23T00:48:01.081Z,736.00
2023-05-23T00:49:01.078Z,735.00
2023-05-23T00:50:01.145Z,735.00
2023-05-23T00:51:01.188Z,734.00
2023-05-23T00:52:01.235Z,734.00
2023-05-23T00:53:01.300Z,733.00
2023-05-23T00:54:01.359Z,730.00
2023-05-23T00:55:01.418Z,729.00
2023-05-23T00:56:01.475Z,728.00
2023-05-23T00:57:01.515Z,729.00
2023-05-23T00:58:01.579Z,728.00
2023-05-23T00:59:01.626Z,727.00
2023-05-23T01:00:01.689Z,725.00
2023-05-23T01:01:01.684Z,724.00
2023-05-23T01:02:01.856Z,722.00
2023-05-23T01:03:01.949Z,723.00
2023-05-23T01:04:01.927Z,725.00
2023-05-23T01:05:01.905Z,722.00
2023-05-23T01:06:01.969Z,719.00
2023-05-23T01:07:02.044Z,718.00
2023-05-23T01:08:02.074Z,717.00
2023-05-23T01:09:02.251Z,718.00
2023-05-23T01:10:02.174Z,717.00
2023-05-23T01:11:02.236Z,716.00
2023-05-23T01:12:02.296Z,713.00
2023-05-23T01:13:02.326Z,714.00
2023-05-23T01:14:02.344Z,714.00
2023-05-23T01:15:02.728Z,713.00
2023-05-23T01:16:03.057Z,715.00
2023-05-23T01:17:02.473Z,713.00
2023-05-23T01:18:02.564Z,717.00
2023-05-23T01:19:02.661Z,720.00
2023-05-23T01:20:02.629Z,718.00
2023-05-23T01:21:02.692Z,714.00
2023-05-23T01:22:02.745Z,711.00
2023-05-23T01:23:03.762Z,712.00
2023-05-23T01:24:02.866Z,711.00
2023-05-23T01:25:02.922Z,715.00
2023-05-23T01:26:02.985Z,717.00
2023-05-23T01:27:03.029Z,717.00
2023-05-23T01:28:03.096Z,717.00
2023-05-23T01:29:03.152Z,719.00
2023-05-23T01:30:03.211Z,719.00
2023-05-23T01:31:03.271Z,716.00
2023-05-23T01:32:03.479Z,715.00
2023-05-23T01:33:03.421Z,717.00
2023-05-23T01:34:03.422Z,716.00
2023-05-23T01:35:03.513Z,713.00
2023-05-23T01:36:03.569Z,711.00
2023-05-23T01:37:03.593Z,712.00
2023-05-23T01:38:03.656Z,714.00
2023-05-23T01:39:03.716Z,713.00
2023-05-23T01:40:03.768Z,715.00
2023-05-23T01:41:03.823Z,716.00
2023-05-23T01:42:03.889Z,718.00
2023-05-23T01:43:03.945Z,720.00
2023-05-23T01:44:04.018Z,717.00
2023-05-23T01:45:04.048Z,719.00
2023-05-23T01:46:04.137Z,717.00
2023-05-23T01:47:04.172Z,717.00
2023-05-23T01:48:04.422Z,716.00
2023-05-23T01:49:04.319Z,713.00
2023-05-23T01:50:04.354Z,713.00
2023-05-23T01:51:04.393Z,712.00
2023-05-23T01:52:04.450Z,712.00
2023-05-23T01:53:04.505Z,715.00
2023-05-23T01:54:04.568Z,715.00
2023-05-23T01:55:04.619Z,718.00
2023-05-23T01:56:04.676Z,718.00
2023-05-23T01:57:04.748Z,716.00
2023-05-23T01:58:04.796Z,713.00
2023-05-23T01:59:04.844Z,715.00
2023-05-23T02:00:04.897Z,716.00
2023-05-23T02:01:04.966Z,715.00
2023-05-23T02:02:05.033Z,714.00
2023-05-23T02:03:05.222Z,709.00
2023-05-23T02:04:05.257Z,710.00
2023-05-23T02:05:05.191Z,713.00
2023-05-23T02:06:05.242Z,714.00
2023-05-23T02:07:05.275Z,713.00
2023-05-23T02:08:05.328Z,713.00
2023-05-23T02:09:05.424Z,715.00
2023-05-23T02:10:05.465Z,714.00
2023-05-23T02:11:05.513Z,715.00
2023-05-23T02:12:05.579Z,715.00
2023-05-23T02:13:05.636Z,715.00
2023-05-23T02:14:05.724Z,713.00
2023-05-23T02:15:05.795Z,714.00
2023-05-23T02:16:05.839Z,715.00
2023-05-23T02:17:05.932Z,714.00
2023-05-23T02:18:06.003Z,711.00
2023-05-23T02:19:06.017Z,710.00
2023-05-23T02:20:06.231Z,708.00
2023-05-23T02:21:06.132Z,707.00
2023-05-23T02:22:06.138Z,705.00
2023-05-23T02:23:06.174Z,706.00
2023-05-23T02:24:06.261Z,705.00
2023-05-23T02:25:06.295Z,707.00
2023-05-23T02:26:06.352Z,705.00
2023-05-23T02:27:06.419Z,704.00
2023-05-23T02:28:06.528Z,703.00
2023-05-23T02:29:06.563Z,704.00
2023-05-23T02:30:06.602Z,703.00
2023-05-23T02:31:06.698Z,702.00
2023-05-23T02:32:06.711Z,704.00
2023-05-23T02:33:06.821Z,705.00
2023-05-23T02:34:06.827Z,705.00
2023-05-23T02:35:06.879Z,705.00
2023-05-23T02:36:07.055Z,704.00
2023-05-23T02:37:07.025Z,705.00
2023-05-23T02:38:07.037Z,704.00
2023-05-23T02:39:07.109Z,704.00
2023-05-23T02:40:07.148Z,703.00
2023-05-23T02:41:07.211Z,704.00
2023-05-23T02:42:07.262Z,705.00
2023-05-23T02:43:07.329Z,707.00
2023-05-23T02:44:07.413Z,707.00
2023-05-23T02:45:07.464Z,708.00
2023-05-23T02:46:07.519Z,704.00
2023-05-23T02:47:07.571Z,704.00
2023-05-23T02:48:07.834Z,705.00
2023-05-23T02:49:07.699Z,705.00
2023-05-23T02:50:07.751Z,706.00
2023-05-23T02:51:07.804Z,707.00
2023-05-23T02:52:07.977Z,707.00
2023-05-23T02:53:07.926Z,706.00
2023-05-23T02:54:06.978Z,707.00
2023-05-23T02:55:08.057Z,709.00
2023-05-23T02:56:08.080Z,708.00
2023-05-23T02:57:08.119Z,706.00
2023-05-23T02:58:08.175Z,706.00
2023-05-23T02:59:08.257Z,704.00
2023-05-23T03:00:08.276Z,704.00
2023-05-23T03:01:08.508Z,704.00
2023-05-23T03:02:08.471Z,705.00
2023-05-23T03:03:08.479Z,702.00
2023-05-23T03:04:08.504Z,703.00
2023-05-23T03:05:08.581Z,703.00
2023-05-23T03:06:08.628Z,699.00
2023-05-23T03:07:11.652Z,697.00
2023-05-23T03:08:08.832Z,698.00
2023-05-23T03:09:08.688Z,700.00
2023-05-23T03:10:08.687Z,701.00
2023-05-23T03:11:08.669Z,702.00
2023-05-23T03:12:08.660Z,704.00
2023-05-23T03:13:08.652Z,704.00
2023-05-23T03:14:08.643Z,703.00
2023-05-23T03:15:08.637Z,705.00
2023-05-23T03:16:08.688Z,704.00
2023-05-23T03:17:08.621Z,706.00
2023-05-23T03:18:08.816Z,704.00
2023-05-23T03:19:08.655Z,702.00
2023-05-23T03:20:08.616Z,702.00
2023-05-23T03:21:08.597Z,703.00
2023-05-23T03:22:08.587Z,703.00
2023-05-23T03:23:08.585Z,701.00
2023-05-23T03:24:08.722Z,699.00
2023-05-23T03:25:08.586Z,698.00
2023-05-23T03:26:08.569Z,694.00
2023-05-23T03:27:08.557Z,694.00
2023-05-23T03:28:08.547Z,695.00
2023-05-23T03:29:08.541Z,696.00
2023-05-23T03:30:08.539Z,695.00
2023-05-23T03:31:08.532Z,694.00
2023-05-23T03:32:08.535Z,698.00
2023-05-23T03:33:08.612Z,697.00
2023-05-23T03:34:08.672Z,698.00
2023-05-23T03:35:08.715Z,696.00
2023-05-23T03:36:08.761Z,694.00
2023-05-23T03:37:08.813Z,697.00
2023-05-23T03:38:08.869Z,699.00
2023-05-23T03:39:08.942Z,698.00
2023-05-23T03:40:09.104Z,697.00
2023-05-23T03:41:09.032Z,695.00
2023-05-23T03:42:09.069Z,695.00
2023-05-23T03:43:09.134Z,695.00
2023-05-23T03:44:09.237Z,696.00
2023-05-23T03:45:09.254Z,698.00
2023-05-23T03:46:09.366Z,698.00
2023-05-23T03:47:09.385Z,698.00
2023-05-23T03:48:09.449Z,697.00
2023-05-23T03:49:09.514Z,698.00
2023-05-23T03:50:09.569Z,696.00
2023-05-23T03:51:09.633Z,695.00
2023-05-23T03:52:09.688Z,694.00
2023-05-23T03:53:09.756Z,692.00
2023-05-23T03:54:09.816Z,691.00
2023-05-23T03:55:09.888Z,693.00
2023-05-23T03:56:10.077Z,692.00
2023-05-23T03:57:10.001Z,691.00
2023-05-23T03:58:10.059Z,691.00
2023-05-23T03:59:10.122Z,691.00
2023-05-23T04:00:10.184Z,691.00
2023-05-23T04:01:10.264Z,689.00
2023-05-23T04:02:10.332Z,690.00
2023-05-23T04:03:10.509Z,688.00
2023-05-23T04:04:10.446Z,689.00
2023-05-23T04:05:10.508Z,690.00
2023-05-23T04:06:12.219Z,688.00
2023-05-23T04:07:10.512Z,689.00
2023-05-23T04:08:10.511Z,690.00
2023-05-23T04:09:10.500Z,689.00
2023-05-23T04:10:10.505Z,686.00
2023-05-23T04:11:10.474Z,687.00
2023-05-23T04:12:10.601Z,685.00
2023-05-23T04:13:10.461Z,686.00
2023-05-23T04:14:10.458Z,687.00
2023-05-23T04:15:10.466Z,687.00
2023-05-23T04:16:10.503Z,689.00
2023-05-23T04:17:10.441Z,689.00
2023-05-23T04:18:10.465Z,692.00
2023-05-23T04:19:10.455Z,692.00
2023-05-23T04:20:10.431Z,692.00
2023-05-23T04:21:10.412Z,689.00
2023-05-23T04:22:10.416Z,690.00
2023-05-23T04:23:10.419Z,691.00
2023-05-23T04:24:10.401Z,691.00
2023-05-23T04:25:10.390Z,691.00
2023-05-23T04:26:10.400Z,692.00
2023-05-23T04:27:11.301Z,691.00
2023-05-23T04:28:10.513Z,690.00
2023-05-23T04:29:10.361Z,689.00
2023-05-23T04:30:10.371Z,687.00
2023-05-23T04:31:10.411Z,684.00
2023-05-23T04:32:10.365Z,684.00
2023-05-23T04:33:10.517Z,682.00
2023-05-23T04:34:10.454Z,684.00
2023-05-23T04:35:12.381Z,684.00
2023-05-23T04:36:10.510Z,685.00
2023-05-23T04:37:10.503Z,684.00
2023-05-23T04:38:10.529Z,684.00
2023-05-23T04:39:10.508Z,682.00
2023-05-23T04:40:10.487Z,680.00
2023-05-23T04:41:10.637Z,678.00
2023-05-23T04:42:10.474Z,680.00
2023-05-23T04:43:10.477Z,679.00
2023-05-23T04:44:10.607Z,679.00
2023-05-23T04:45:10.462Z,677.00
2023-05-23T04:46:10.482Z,675.00
2023-05-23T04:47:10.462Z,674.00
2023-05-23T04:48:10.500Z,672.00
2023-05-23T04:49:10.454Z,671.00
2023-05-23T04:50:10.505Z,672.00
2023-05-23T04:51:10.565Z,673.00
2023-05-23T04:52:10.617Z,675.00
2023-05-23T04:53:10.681Z,674.00
2023-05-23T04:54:10.779Z,676.00
2023-05-23T04:55:10.831Z,674.00
2023-05-23T04:56:10.871Z,676.00
2023-05-23T04:57:10.908Z,679.00
2023-05-23T04:58:10.956Z,679.00
2023-05-23T04:59:11.007Z,680.00
2023-05-23T05:00:11.224Z,681.00
2023-05-23T05:01:11.157Z,682.00
2023-05-23T05:02:11.165Z,684.00
2023-05-23T05:03:11.218Z,687.00
2023-05-23T05:04:11.321Z,685.00
2023-05-23T05:05:11.311Z,687.00
2023-05-23T05:06:11.339Z,688.00
2023-05-23T05:07:11.384Z,685.00
2023-05-23T05:08:11.416Z,682.00
2023-05-23T05:09:11.471Z,681.00
2023-05-23T05:10:11.525Z,680.00
2023-05-23T05:11:11.579Z,677.00
2023-05-23T05:12:11.619Z,676.00
2023-05-23T05:13:11.678Z,679.00
2023-05-23T05:14:11.709Z,681.00
2023-05-23T05:15:11.825Z,681.00
2023-05-23T05:16:11.959Z,681.00
2023-05-23T05:17:11.930Z,683.00
2023-05-23T05:18:11.968Z,684.00
2023-05-23T05:19:11.996Z,682.00
2023-05-23T05:20:12.327Z,683.00
2023-05-23T05:21:12.078Z,680.00
2023-05-23T05:22:12.131Z,682.00
2023-05-23T05:23:12.189Z,685.00
2023-05-23T05:24:12.251Z,686.00
2023-05-23T05:25:12.310Z,682.00
2023-05-23T05:26:12.349Z,682.00
2023-05-23T05:27:12.401Z,680.00
2023-05-23T05:28:12.454Z,677.00
2023-05-23T05:29:12.536Z,677.00
2023-05-23T05:30:12.570Z,676.00
2023-05-23T05:31:12.662Z,678.00
2023-05-23T05:32:12.779Z,679.00
2023-05-23T05:33:12.688Z,685.00
2023-05-23T05:34:12.748Z,686.00
2023-05-23T05:35:12.802Z,683.00
2023-05-23T05:36:12.883Z,682.00
2023-05-23T05:37:12.920Z,682.00
2023-05-23T05:38:12.996Z,680.00
2023-05-23T05:39:13.051Z,681.00
2023-05-23T05:40:13.191Z,683.00
2023-05-23T05:41:13.232Z,683.00
2023-05-23T05:42:13.264Z,680.00
2023-05-23T05:43:13.310Z,677.00
2023-05-23T05:44:13.870Z,677.00
2023-05-23T05:45:13.968Z,678.00
2023-05-23T05:46:13.436Z,679.00
2023-05-23T05:47:13.457Z,680.00
2023-05-23T05:48:13.615Z,679.00
2023-05-23T05:49:13.877Z,679.00
2023-05-23T05:50:13.576Z,679.00
2023-05-23T05:51:13.657Z,677.00
2023-05-23T05:52:13.694Z,676.00
2023-05-23T05:53:13.809Z,677.00
2023-05-23T05:54:13.852Z,682.00
2023-05-23T05:56:13.805Z,703.00
2023-05-23T05:58:13.798Z,795.00
2023-05-23T05:59:31.094Z,806.00
2023-05-23T06:00:13.797Z,816.00
2023-05-23T06:01:14.404Z,823.00
2023-05-23T06:02:17.210Z,833.00
2023-05-23T06:03:14.804Z,870.00
2023-05-23T06:04:14.132Z,878.00
2023-05-23T06:05:13.752Z,888.00
2023-05-23T06:06:14.140Z,897.00
2023-05-23T06:07:14.744Z,908.00
2023-05-23T06:08:13.872Z,916.00
2023-05-23T06:09:13.917Z,925.00
2023-05-23T06:10:14.529Z,943.00
2023-05-23T06:11:14.187Z,962.00
2023-05-23T06:12:14.108Z,978.00
2023-05-23T06:13:14.361Z,995.00
2023-05-23T06:14:14.292Z,1006.00
2023-05-23T06:15:14.488Z,1012.00
2023-05-23T06:16:14.302Z,1021.00
2023-05-23T06:17:16.282Z,1029.00
2023-05-23T06:18:14.211Z,1026.00
2023-05-23T06:19:14.122Z,1019.00
2023-05-23T06:20:14.550Z,1015.00
2023-05-23T06:21:14.032Z,1014.00
2023-05-23T06:22:14.025Z,1013.00
2023-05-23T06:23:15.349Z,1013.00
2023-05-23T06:24:14.082Z,1014.00
2023-05-23T06:25:14.503Z,1017.00
2023-05-23T06:26:13.838Z,1012.00
2023-05-23T06:27:14.490Z,1003.00
2023-05-23T06:28:14.430Z,996.00
2023-05-23T06:29:14.648Z,989.00
2023-05-23T06:30:14.881Z,983.00
2023-05-23T06:31:14.456Z,980.00
2023-05-23T06:32:14.354Z,976.00
2023-05-23T06:33:14.687Z,969.00
2023-05-23T06:34:14.523Z,965.00
2023-05-23T06:35:14.564Z,961.00
2023-05-23T06:36:14.706Z,963.00
2023-05-23T06:37:14.450Z,969.00
2023-05-23T06:38:17.583Z,980.00
2023-05-23T06:39:14.561Z,987.00
2023-05-23T06:40:14.981Z,998.00
2023-05-23T06:41:14.756Z,1005.00
2023-05-23T06:42:17.748Z,1020.00
2023-05-23T06:43:14.927Z,1032.00
2023-05-23T06:44:14.422Z,1041.00
2023-05-23T06:45:16.628Z,1051.00
2023-05-23T06:46:22.219Z,1068.00
2023-05-23T06:47:15.461Z,1031.00
2023-05-23T06:48:15.600Z,994.00
2023-05-23T06:49:30.124Z,917.00
2023-05-23T06:50:14.638Z,905.00
2023-05-23T06:51:17.963Z,898.00
2023-05-23T06:52:30.105Z,887.00
2023-05-23T06:53:15.635Z,881.00
2023-05-23T06:54:14.387Z,865.00
2023-05-23T06:55:15.558Z,842.00
2023-05-23T06:56:14.702Z,824.00
2023-05-23T06:57:14.752Z,793.00
2023-05-23T06:58:14.945Z,770.00
2023-05-23T06:59:14.852Z,755.00
2023-05-23T07:00:14.855Z,746.00
2023-05-23T07:01:14.894Z,739.00
2023-05-23T07:02:14.904Z,732.00
2023-05-23T07:03:14.794Z,731.00
2023-05-23T07:04:14.365Z,722.00
2023-05-23T07:05:15.592Z,710.00
2023-05-23T07:06:14.740Z,703.00
2023-05-23T07:07:14.846Z,697.00
2023-05-23T07:08:14.945Z,692.00
2023-05-23T07:09:15.018Z,693.00
2023-05-23T07:10:14.934Z,692.00
2023-05-23T07:11:14.979Z,693.00
2023-05-23T07:12:15.023Z,690.00
2023-05-23T07:13:15.163Z,689.00
2023-05-23T07:14:15.053Z,691.00
2023-05-23T07:15:14.879Z,687.00
2023-05-23T07:16:14.926Z,684.00
2023-05-23T07:17:15.071Z,682.00
2023-05-23T07:18:15.041Z,677.00
2023-05-23T07:19:15.158Z,674.00
2023-05-23T07:20:15.382Z,671.00
2023-05-23T07:21:15.211Z,666.00
2023-05-23T07:22:15.389Z,661.00
2023-05-23T07:23:15.466Z,656.00
2023-05-23T07:24:15.439Z,652.00
2023-05-23T07:25:15.889Z,647.00
2023-05-23T07:26:15.528Z,645.00
2023-05-23T07:27:15.562Z,642.00
2023-05-23T07:28:15.625Z,641.00
2023-05-23T07:29:15.819Z,642.00
2023-05-23T07:30:15.891Z,644.00
2023-05-23T07:31:15.857Z,640.00
2023-05-23T07:32:15.861Z,636.00
2023-05-23T07:33:23.787Z,634.00
2023-05-23T07:34:15.921Z,630.00
2023-05-23T07:35:16.396Z,627.00
2023-05-23T07:36:23.303Z,623.00
2023-05-23T07:37:16.415Z,621.00
2023-05-23T07:38:19.110Z,619.00
2023-05-23T07:39:15.925Z,622.00
2023-05-23T07:40:15.899Z,680.00
2023-05-23T07:41:23.321Z,682.00
2023-05-23T07:42:15.917Z,689.00
2023-05-23T07:43:15.880Z,699.00
2023-05-23T07:44:25.167Z,702.00
2023-05-23T07:45:15.943Z,704.00
2023-05-23T07:46:19.081Z,712.00
2023-05-23T07:47:15.894Z,752.00
2023-05-23T07:48:15.870Z,765.00
2023-05-23T07:49:15.812Z,768.00
2023-05-23T07:50:15.918Z,781.00
2023-05-23T07:51:15.885Z,807.00
2023-05-23T07:52:15.789Z,816.00
2023-05-23T07:53:15.790Z,822.00
2023-05-23T07:54:16.819Z,830.00
2023-05-23T07:55:15.906Z,845.00
2023-05-23T07:56:16.803Z,862.00
2023-05-23T07:57:15.779Z,885.00
2023-05-23T07:58:15.764Z,900.00
2023-05-23T07:59:15.743Z,903.00
2023-05-23T08:00:15.921Z,906.00
2023-05-23T08:01:15.752Z,918.00
2023-05-23T08:03:23.214Z,938.00
2023-05-23T08:04:15.823Z,946.00
2023-05-23T08:05:47.765Z,956.00
2023-05-23T08:06:15.743Z,966.00
2023-05-23T08:07:18.649Z,975.00
2023-05-23T08:08:23.113Z,985.00
2023-05-23T08:10:15.743Z,994.00
2023-05-23T08:11:15.705Z,1000.00
2023-05-23T08:12:15.700Z,1004.00
2023-05-23T08:13:23.089Z,1011.00
2023-05-23T08:14:15.695Z,1024.00
2023-05-23T08:15:15.912Z,1045.00
2023-05-23T08:16:19.005Z,1083.00
2023-05-23T08:17:15.701Z,1095.00
2023-05-23T08:18:15.813Z,1097.00
2023-05-23T08:19:15.697Z,1102.00
2023-05-23T08:20:15.907Z,1112.00
2023-05-23T08:21:15.714Z,1124.00
2023-05-23T08:22:15.626Z,1138.00
2023-05-23T08:23:15.621Z,1151.00
2023-05-23T08:24:15.620Z,1178.00
2023-05-23T08:25:15.617Z,1196.00
2023-05-23T08:26:15.641Z,1212.00
2023-05-23T08:27:15.605Z,1226.00
2023-05-23T08:28:15.611Z,1241.00
2023-05-23T08:29:15.832Z,1254.00
2023-05-23T08:30:15.944Z,1277.00
2023-05-23T08:31:15.576Z,1307.00
2023-05-23T08:32:15.680Z,1321.00
2023-05-23T08:33:15.619Z,1331.00
2023-05-23T08:34:15.571Z,1352.00
2023-05-23T08:35:15.920Z,1370.00
2023-05-23T08:36:15.549Z,1380.00
2023-05-23T08:37:15.548Z,1413.00
2023-05-23T08:38:15.571Z,1419.00
2023-05-23T08:39:15.521Z,1432.00
2023-05-23T08:40:15.924Z,1444.00
2023-05-23T08:41:15.507Z,1454.00
2023-05-23T08:42:15.618Z,1462.00
2023-05-23T08:43:15.494Z,1471.00
2023-05-23T08:44:15.539Z,1504.00
2023-05-23T08:45:23.427Z,1521.00
2023-05-23T08:46:18.724Z,1537.00
2023-05-23T08:47:15.465Z,1548.00
2023-05-23T08:48:15.474Z,1557.00
2023-05-23T08:49:22.904Z,1565.00
2023-05-23T08:50:15.943Z,1576.00
2023-05-23T08:51:15.433Z,1590.00
2023-05-23T08:52:15.427Z,1604.00
2023-05-23T08:53:15.415Z,1617.00
2023-05-23T08:54:15.423Z,1623.00
2023-05-23T08:55:15.404Z,1632.00
2023-05-23T08:56:15.415Z,1641.00
2023-05-23T08:57:15.394Z,1662.00
2023-05-23T08:58:15.490Z,1719.00
2023-05-23T08:59:15.375Z,1726.00
2023-05-23T09:00:15.428Z,1731.00
2023-05-23T09:01:15.384Z,1729.00
2023-05-23T09:02:15.363Z,1739.00
2023-05-23T09:03:15.352Z,1753.00
2023-05-23T09:04:15.356Z,1781.00
2023-05-23T09:05:15.470Z,1802.00
2023-05-23T09:06:15.335Z,1812.00
2023-05-23T09:07:15.430Z,1818.00
2023-05-23T09:08:15.333Z,1827.00
2023-05-23T09:09:15.319Z,1843.00
2023-05-23T09:10:15.920Z,1861.00
2023-05-23T09:11:15.308Z,1886.00
2023-05-23T09:12:15.341Z,1897.00
2023-05-23T09:13:15.389Z,1905.00
2023-05-23T09:14:15.455Z,1923.00
2023-05-23T09:15:15.932Z,1941.00
2023-05-23T09:16:15.543Z,1954.00
2023-05-23T09:17:15.590Z,1972.00
2023-05-23T09:18:15.659Z,1987.00
2023-05-23T09:19:15.854Z,1988.00
2023-05-23T09:20:15.934Z,1994.00
2023-05-23T09:21:15.843Z,1998.00
2023-05-23T09:22:15.923Z,2018.00
2023-05-23T09:23:15.974Z,2042.00
2023-05-23T09:24:16.033Z,2052.00
2023-05-23T09:25:16.076Z,2072.00
2023-05-23T09:26:16.147Z,2103.00
2023-05-23T09:27:16.208Z,2108.00
2023-05-23T09:28:16.257Z,2116.00
2023-05-23T09:29:17.323Z,2120.00
2023-05-23T09:30:17.585Z,2124.00
2023-05-23T09:31:16.498Z,2126.00
2023-05-23T09:32:17.975Z,2124.00
2023-05-23T09:33:17.072Z,2112.00
2023-05-23T09:34:16.597Z,2090.00
2023-05-23T09:35:16.946Z,2082.00
2023-05-23T09:36:16.656Z,2075.00
2023-05-23T09:37:16.989Z,2069.00
2023-05-23T09:38:16.677Z,2065.00
2023-05-23T09:39:16.669Z,2057.00
2023-05-23T09:40:17.047Z,2056.00
2023-05-23T09:41:16.674Z,2053.00
2023-05-23T09:42:24.134Z,2047.00
2023-05-23T09:43:17.687Z,2047.00
2023-05-23T09:44:16.682Z,2049.00
2023-05-23T09:45:17.202Z,2051.00
2023-05-23T09:46:16.954Z,2048.00
2023-05-23T09:47:16.771Z,2041.00
2023-05-23T09:48:16.650Z,2035.00
2023-05-23T09:49:16.647Z,2038.00
2023-05-23T09:50:16.686Z,2045.00
2023-05-23T09:51:16.639Z,2052.00
2023-05-23T09:52:19.829Z,2054.00
2023-05-23T09:53:16.626Z,2055.00
2023-05-23T09:54:16.617Z,2057.00
2023-05-23T09:55:16.997Z,2058.00
2023-05-23T09:56:16.636Z,2059.00
2023-05-23T09:57:19.813Z,2069.00
2023-05-23T09:58:24.009Z,2071.00
2023-05-23T09:59:16.578Z,2071.00
2023-05-23T10:00:16.630Z,2079.00
2023-05-23T10:01:17.036Z,2085.00
2023-05-23T10:02:16.619Z,2093.00
2023-05-23T10:03:16.631Z,2106.00
2023-05-23T10:04:16.755Z,2106.00
2023-05-23T10:05:16.547Z,2111.00
2023-05-23T10:06:16.955Z,2153.00
2023-05-23T10:07:16.532Z,2183.00
2023-05-23T10:08:16.515Z,2178.00
2023-05-23T10:09:16.513Z,2182.00
2023-05-23T10:10:20.211Z,2193.00
2023-05-23T10:11:16.970Z,2198.00
2023-05-23T10:12:16.967Z,2211.00
2023-05-23T10:13:16.476Z,2215.00
2023-05-23T10:14:16.468Z,2234.00
2023-05-23T10:15:16.463Z,2255.00
2023-05-23T10:16:17.043Z,2261.00
2023-05-23T10:17:16.571Z,2266.00
2023-05-23T10:18:16.454Z,2285.00
2023-05-23T10:19:16.500Z,2297.00
2023-05-23T10:20:16.488Z,2303.00
2023-05-23T10:21:16.526Z,2306.00
2023-05-23T10:22:23.857Z,2313.00
2023-05-23T10:23:16.424Z,2321.00
2023-05-23T10:24:16.397Z,2330.00
2023-05-23T10:25:16.478Z,2343.00
2023-05-23T10:26:17.388Z,2349.00
2023-05-23T10:27:16.467Z,2356.00
2023-05-23T10:28:16.486Z,2375.00
2023-05-23T10:29:16.356Z,2379.00
2023-05-23T10:30:16.357Z,2381.00
2023-05-23T10:31:16.354Z,2372.00
2023-05-23T10:32:16.350Z,2302.00
2023-05-23T10:33:19.826Z,2226.00
2023-05-23T10:34:17.326Z,2150.00
2023-05-23T10:35:16.481Z,2117.00
2023-05-23T10:36:16.377Z,2109.00
2023-05-23T10:37:16.463Z,2115.00
2023-05-23T10:38:16.309Z,2126.00
2023-05-23T10:39:16.325Z,2140.00
2023-05-23T10:40:16.483Z,2169.00
2023-05-23T10:41:16.288Z,2187.00
2023-05-23T10:42:16.275Z,2200.00
2023-05-23T10:43:16.299Z,2211.00
2023-05-23T10:44:16.539Z,2239.00
2023-05-23T10:45:16.420Z,2253.00
2023-05-23T10:46:16.529Z,2264.00
2023-05-23T10:47:16.604Z,2281.00
2023-05-23T10:48:17.549Z,2310.00
2023-05-23T10:49:16.994Z,2316.00
2023-05-23T10:50:16.968Z,2326.00
2023-05-23T10:51:16.697Z,2337.00
2023-05-23T10:52:16.788Z,2349.00
2023-05-23T10:53:16.831Z,2362.00
2023-05-23T10:54:16.820Z,2376.00
2023-05-23T10:55:16.836Z,2394.00
2023-05-23T10:56:16.969Z,2404.00
2023-05-23T10:57:16.924Z,2425.00
2023-05-23T10:58:16.977Z,2446.00
2023-05-23T10:59:17.010Z,2455.00
2023-05-23T11:00:17.471Z,2478.00
2023-05-23T11:01:17.063Z,2496.00
2023-05-23T11:02:17.212Z,2574.00
2023-05-23T11:03:17.173Z,2568.00
2023-05-23T11:04:17.274Z,2572.00
2023-05-23T11:05:17.228Z,2562.00
2023-05-23T11:06:17.241Z,2475.00
2023-05-23T11:07:17.498Z,2409.00
2023-05-23T11:08:17.325Z,2322.00
2023-05-23T11:09:17.376Z,2300.00
2023-05-23T11:10:17.478Z,2237.00
2023-05-23T11:11:17.482Z,2212.00
2023-05-23T11:12:17.595Z,2182.00
2023-05-23T11:13:17.988Z,2134.00
2023-05-23T11:14:17.640Z,2115.00
2023-05-23T11:15:18.006Z,2095.00
2023-05-23T11:16:17.731Z,2050.00
2023-05-23T11:17:17.747Z,2037.00
2023-05-23T11:18:21.182Z,2034.00
2023-05-23T11:19:18.059Z,2031.00
2023-05-23T11:20:17.997Z,2018.00
2023-05-23T11:21:17.769Z,2015.00
2023-05-23T11:22:17.745Z,2002.00
2023-05-23T11:23:17.730Z,1979.00
2023-05-23T11:24:17.757Z,1957.00
2023-05-23T11:25:17.988Z,1949.00
2023-05-23T11:26:17.706Z,1947.00
2023-05-23T11:27:17.708Z,1940.00
2023-05-23T11:28:17.981Z,1937.00
2023-05-23T11:29:17.686Z,1921.00
2023-05-23T11:30:17.989Z,1900.00
2023-05-23T11:31:17.707Z,1883.00
2023-05-23T11:32:18.179Z,1871.00
2023-05-23T11:33:17.683Z,1851.00
2023-05-23T11:34:17.658Z,1816.00
2023-05-23T11:35:17.653Z,1805.00
2023-05-23T11:36:17.665Z,1795.00
2023-05-23T11:37:18.015Z,1800.00
2023-05-23T11:38:17.646Z,1788.00
2023-05-23T11:39:17.670Z,1731.00
2023-05-23T11:40:17.990Z,1730.00
2023-05-23T11:41:17.770Z,1727.00
2023-05-23T11:42:17.816Z,1729.00
2023-05-23T11:43:18.066Z,1735.00
2023-05-23T11:44:17.926Z,1737.00
2023-05-23T11:45:17.997Z,1755.00
2023-05-23T11:46:18.048Z,1781.00
2023-05-23T11:47:18.078Z,1815.00
2023-05-23T11:48:18.268Z,1835.00
2023-05-23T11:49:18.114Z,1897.00
2023-05-23T11:50:18.504Z,1913.00
2023-05-23T11:51:18.235Z,1916.00
2023-05-23T11:52:18.260Z,1911.00
2023-05-23T11:53:18.333Z,1907.00
2023-05-23T11:54:18.512Z,1901.00
2023-05-23T11:55:18.418Z,1893.00
2023-05-23T11:56:18.442Z,1886.00
2023-05-23T11:57:18.500Z,1882.00
2023-05-23T11:58:18.544Z,1884.00
2023-05-23T11:59:18.586Z,1884.00
2023-05-23T12:00:19.043Z,1881.00
2023-05-23T12:01:18.652Z,1877.00
2023-05-23T12:02:18.733Z,1873.00
2023-05-23T12:03:18.818Z,1870.00
2023-05-23T12:04:18.897Z,1865.00
2023-05-23T12:05:18.849Z,1865.00
2023-05-23T12:06:18.881Z,1862.00
2023-05-23T12:07:18.966Z,1859.00
2023-05-23T12:08:19.008Z,1856.00
2023-05-23T12:09:19.071Z,1854.00
2023-05-23T12:10:35.118Z,1851.00
2023-05-23T12:11:19.121Z,1846.00
2023-05-23T12:12:19.070Z,1848.00
2023-05-23T12:13:19.064Z,1849.00
2023-05-23T12:14:19.086Z,1843.00
2023-05-23T12:15:20.508Z,1840.00
2023-05-23T12:16:19.201Z,1839.00
2023-05-23T12:17:19.220Z,1839.00
2023-05-23T12:18:19.226Z,1837.00
2023-05-23T12:19:20.304Z,1837.00
2023-05-23T12:20:19.506Z,1836.00
2023-05-23T12:21:19.443Z,1835.00
2023-05-23T12:22:19.474Z,1827.00
2023-05-23T12:23:19.532Z,1823.00
2023-05-23T12:24:19.605Z,1820.00